sensor_id;sensor_type;location;lat;lon;timestamp;P1;durP1;ratioP1;P2;durP2;ratioP2
60847;SDS011;46681;47.696;9.140;2023-05-24T00:00:05;4.23;;;3.90;;
60847;SDS011;46681;47.696;9.140;2023-05-24T00:02:40;4.33;;;4.03;;
60847;SDS011;46681;47.696;9.140;2023-05-24T00:05:07;4.43;;;4.03;;
60847;SDS011;46681;47.696;9.140;2023-05-24T00:07:33;4.37;;;4.07;;
60847;SDS011;46681;47.696;9.140;2023-05-24T00:10:03;3.80;;;3.60;;
60847;SDS011;46681;47.696;9.140;2023-05-24T00:12:29;4.83;;;4.10;;
60847;SDS011;46681;47.696;9.140;2023-05-24T00:14:54;3.93;;;3.63;;
60847;SDS011;46681;47.696;9.140;2023-05-24T00:17:20;4.53;;;4.07;;
60847;SDS011;46681;47.696;9.140;2023-05-24T00:19:47;4.47;;;4.07;;
60847;SDS011;46681;47.696;9.140;2023-05-24T00:22:12;4.30;;;4.00;;
60847;SDS011;46681;47.696;9.140;2023-05-24T00:24:39;4.53;;;4.23;;
60847;SDS011;46681;47.696;9.140;2023-05-24T00:27:05;4.03;;;3.80;;
60847;SDS011;46681;47.696;9.140;2023-05-24T00:29:31;4.23;;;3.93;;
60847;SDS011;46681;47.696;9.140;2023-05-24T00:31:57;3.73;;;3.53;;
60847;SDS011;46681;47.696;9.140;2023-05-24T00:34:22;4.53;;;4.13;;
60847;SDS011;46681;47.696;9.140;2023-05-24T00:36:48;4.00;;;3.60;;
60847;SDS011;46681;47.696;9.140;2023-05-24T00:39:13;4.03;;;3.73;;
60847;SDS011;46681;47.696;9.140;2023-05-24T00:41:39;4.30;;;4.00;;
60847;SDS011;46681;47.696;9.140;2023-05-24T00:44:05;3.70;;;3.40;;
60847;SDS011;46681;47.696;9.140;2023-05-24T00:46:33;3.87;;;3.57;;
60847;SDS011;46681;47.696;9.140;2023-05-24T00:49:02;4.53;;;4.13;;
60847;SDS011;46681;47.696;9.140;2023-05-24T00:51:29;3.93;;;3.63;;
60847;SDS011;46681;47.696;9.140;2023-05-24T00:53:55;6.77;;;3.80;;
60847;SDS011;46681;47.696;9.140;2023-05-24T00:56:21;3.80;;;3.40;;
60847;SDS011;46681;47.696;9.140;2023-05-24T00:58:46;3.93;;;3.63;;
60847;SDS011;46681;47.696;9.140;2023-05-24T01:01:15;3.90;;;3.60;;
60847;SDS011;46681;47.696;9.140;2023-05-24T01:03:40;4.10;;;3.80;;
60847;SDS011;46681;47.696;9.140;2023-05-24T01:06:06;3.47;;;3.23;;
60847;SDS011;46681;47.696;9.140;2023-05-24T01:11:05;4.10;;;3.77;;
60847;SDS011;46681;47.696;9.140;2023-05-24T01:16:44;4.30;;;4.00;;
60847;SDS011;46681;47.696;9.140;2023-05-24T01:19:39;3.87;;;3.63;;
60847;SDS011;46681;47.696;9.140;2023-05-24T01:25:34;3.63;;;3.43;;
60847;SDS011;46681;47.696;9.140;2023-05-24T01:28:12;4.10;;;3.80;;
60847;SDS011;46681;47.696;9.140;2023-05-24T01:30:39;3.73;;;3.50;;
60847;SDS011;46681;47.696;9.140;2023-05-24T01:33:05;3.50;;;3.30;;
60847;SDS011;46681;47.696;9.140;2023-05-24T01:35:31;3.80;;;3.50;;
60847;SDS011;46681;47.696;9.140;2023-05-24T01:37:56;3.77;;;3.47;;
60847;SDS011;46681;47.696;9.140;2023-05-24T01:40:22;3.90;;;3.50;;
60847;SDS011;46681;47.696;9.140;2023-05-24T01:42:51;3.67;;;3.43;;
60847;SDS011;46681;47.696;9.140;2023-05-24T01:45:38;3.57;;;3.27;;
60847;SDS011;46681;47.696;9.140;2023-05-24T01:48:18;3.47;;;3.17;;
60847;SDS011;46681;47.696;9.140;2023-05-24T01:51:06;3.57;;;3.37;;
60847;SDS011;46681;47.696;9.140;2023-05-24T01:53:33;3.73;;;3.43;;
60847;SDS011;46681;47.696;9.140;2023-05-24T01:56:08;3.10;;;2.90;;
60847;SDS011;46681;47.696;9.140;2023-05-24T01:58:37;3.33;;;3.03;;
60847;SDS011;46681;47.696;9.140;2023-05-24T02:01:05;4.13;;;3.53;;
60847;SDS011;46681;47.696;9.140;2023-05-24T02:03:31;3.07;;;2.87;;
60847;SDS011;46681;47.696;9.140;2023-05-24T02:05:57;3.60;;;3.10;;
60847;SDS011;46681;47.696;9.140;2023-05-24T02:08:23;3.67;;;3.37;;
60847;SDS011;46681;47.696;9.140;2023-05-24T02:10:48;3.27;;;3.07;;
60847;SDS011;46681;47.696;9.140;2023-05-24T02:13:14;4.00;;;3.00;;
60847;SDS011;46681;47.696;9.140;2023-05-24T02:15:39;2.90;;;2.70;;
60847;SDS011;46681;47.696;9.140;2023-05-24T02:18:05;3.60;;;3.33;;
60847;SDS011;46681;47.696;9.140;2023-05-24T02:20:30;3.50;;;3.30;;
60847;SDS011;46681;47.696;9.140;2023-05-24T02:22:56;3.57;;;3.27;;
60847;SDS011;46681;47.696;9.140;2023-05-24T02:25:22;3.30;;;3.10;;
60847;SDS011;46681;47.696;9.140;2023-05-24T02:27:48;2.93;;;2.83;;
60847;SDS011;46681;47.696;9.140;2023-05-24T02:30:13;3.20;;;3.00;;
60847;SDS011;46681;47.696;9.140;2023-05-24T02:32:39;3.40;;;3.20;;
60847;SDS011;46681;47.696;9.140;2023-05-24T02:35:04;3.43;;;3.13;;
60847;SDS011;46681;47.696;9.140;2023-05-24T02:37:33;3.03;;;2.83;;
60847;SDS011;46681;47.696;9.140;2023-05-24T02:39:58;3.50;;;3.20;;
60847;SDS011;46681;47.696;9.140;2023-05-24T02:42:29;2.97;;;2.77;;
60847;SDS011;46681;47.696;9.140;2023-05-24T02:44:54;2.70;;;2.60;;
60847;SDS011;46681;47.696;9.140;2023-05-24T02:47:20;3.27;;;3.07;;
60847;SDS011;46681;47.696;9.140;2023-05-24T02:49:45;2.83;;;2.63;;
60847;SDS011;46681;47.696;9.140;2023-05-24T02:52:11;2.80;;;2.60;;
60847;SDS011;46681;47.696;9.140;2023-05-24T02:54:36;2.87;;;2.67;;
60847;SDS011;46681;47.696;9.140;2023-05-24T02:57:02;2.73;;;2.60;;
60847;SDS011;46681;47.696;9.140;2023-05-24T02:59:28;3.20;;;2.90;;
60847;SDS011;46681;47.696;9.140;2023-05-24T03:01:56;2.70;;;2.50;;
60847;SDS011;46681;47.696;9.140;2023-05-24T03:04:21;2.87;;;2.67;;
60847;SDS011;46681;47.696;9.140;2023-05-24T03:06:47;2.80;;;2.60;;
60847;SDS011;46681;47.696;9.140;2023-05-24T03:09:12;2.53;;;2.40;;
60847;SDS011;46681;47.696;9.140;2023-05-24T03:11:38;2.50;;;2.40;;
60847;SDS011;46681;47.696;9.140;2023-05-24T03:14:03;2.63;;;2.53;;
60847;SDS011;46681;47.696;9.140;2023-05-24T03:16:29;2.90;;;2.70;;
60847;SDS011;46681;47.696;9.140;2023-05-24T03:18:56;2.80;;;2.60;;
60847;SDS011;46681;47.696;9.140;2023-05-24T03:21:21;2.50;;;2.30;;
60847;SDS011;46681;47.696;9.140;2023-05-24T03:23:47;2.47;;;2.37;;
60847;SDS011;46681;47.696;9.140;2023-05-24T03:26:12;2.57;;;2.37;;
60847;SDS011;46681;47.696;9.140;2023-05-24T03:28:39;2.90;;;2.70;;
60847;SDS011;46681;47.696;9.140;2023-05-24T03:31:04;2.40;;;2.30;;
60847;SDS011;46681;47.696;9.140;2023-05-24T03:33:32;2.30;;;2.20;;
60847;SDS011;46681;47.696;9.140;2023-05-24T03:35:58;3.00;;;2.80;;
60847;SDS011;46681;47.696;9.140;2023-05-24T03:38:23;2.60;;;2.37;;
60847;SDS011;46681;47.696;9.140;2023-05-24T03:40:51;2.57;;;2.47;;
60847;SDS011;46681;47.696;9.140;2023-05-24T03:43:17;2.60;;;2.40;;
60847;SDS011;46681;47.696;9.140;2023-05-24T03:45:43;2.80;;;2.53;;
60847;SDS011;46681;47.696;9.140;2023-05-24T03:48:12;2.40;;;2.30;;
60847;SDS011;46681;47.696;9.140;2023-05-24T03:50:37;2.20;;;2.10;;
60847;SDS011;46681;47.696;9.140;2023-05-24T03:53:03;2.37;;;2.27;;
60847;SDS011;46681;47.696;9.140;2023-05-24T03:55:30;2.50;;;2.40;;
60847;SDS011;46681;47.696;9.140;2023-05-24T03:57:56;2.67;;;2.57;;
60847;SDS011;46681;47.696;9.140;2023-05-24T04:00:21;2.90;;;2.60;;
60847;SDS011;46681;47.696;9.140;2023-05-24T04:02:47;2.40;;;2.30;;
60847;SDS011;46681;47.696;9.140;2023-05-24T04:05:12;2.50;;;2.40;;
60847;SDS011;46681;47.696;9.140;2023-05-24T04:07:38;2.70;;;2.17;;
60847;SDS011;46681;47.696;9.140;2023-05-24T04:10:05;2.23;;;2.13;;
60847;SDS011;46681;47.696;9.140;2023-05-24T04:12:35;2.30;;;2.20;;
60847;SDS011;46681;47.696;9.140;2023-05-24T04:15:00;2.43;;;2.33;;
60847;SDS011;46681;47.696;9.140;2023-05-24T04:17:26;2.50;;;2.30;;
60847;SDS011;46681;47.696;9.140;2023-05-24T04:19:52;2.93;;;2.63;;
60847;SDS011;46681;47.696;9.140;2023-05-24T04:22:18;2.80;;;2.60;;
60847;SDS011;46681;47.696;9.140;2023-05-24T04:24:44;2.43;;;2.33;;
60847;SDS011;46681;47.696;9.140;2023-05-24T04:27:09;2.30;;;2.20;;
60847;SDS011;46681;47.696;9.140;2023-05-24T04:29:40;2.40;;;2.20;;
60847;SDS011;46681;47.696;9.140;2023-05-24T04:32:13;2.73;;;2.53;;
60847;SDS011;46681;47.696;9.140;2023-05-24T04:34:40;3.63;;;3.37;;
60847;SDS011;46681;47.696;9.140;2023-05-24T04:37:08;4.23;;;2.73;;
60847;SDS011;46681;47.696;9.140;2023-05-24T04:39:36;2.97;;;2.77;;
60847;SDS011;46681;47.696;9.140;2023-05-24T04:42:04;2.70;;;2.60;;
60847;SDS011;46681;47.696;9.140;2023-05-24T04:44:30;2.80;;;2.50;;
60847;SDS011;46681;47.696;9.140;2023-05-24T04:47:00;3.00;;;2.80;;
60847;SDS011;46681;47.696;9.140;2023-05-24T04:49:31;2.90;;;2.70;;
60847;SDS011;46681;47.696;9.140;2023-05-24T04:51:57;2.60;;;2.40;;
60847;SDS011;46681;47.696;9.140;2023-05-24T04:54:22;3.07;;;2.87;;
60847;SDS011;46681;47.696;9.140;2023-05-24T04:56:51;2.97;;;2.63;;
60847;SDS011;46681;47.696;9.140;2023-05-24T04:59:19;3.80;;;2.93;;
60847;SDS011;46681;47.696;9.140;2023-05-24T05:01:53;2.80;;;2.60;;
60847;SDS011;46681;47.696;9.140;2023-05-24T05:04:18;2.60;;;2.50;;
60847;SDS011;46681;47.696;9.140;2023-05-24T05:06:44;2.73;;;2.53;;
60847;SDS011;46681;47.696;9.140;2023-05-24T05:09:22;3.10;;;2.90;;
60847;SDS011;46681;47.696;9.140;2023-05-24T05:11:53;2.87;;;2.67;;
60847;SDS011;46681;47.696;9.140;2023-05-24T05:14:22;3.27;;;3.00;;
60847;SDS011;46681;47.696;9.140;2023-05-24T05:16:52;2.80;;;2.70;;
60847;SDS011;46681;47.696;9.140;2023-05-24T05:19:18;3.40;;;3.13;;
60847;SDS011;46681;47.696;9.140;2023-05-24T05:21:45;4.50;;;3.23;;
60847;SDS011;46681;47.696;9.140;2023-05-24T05:24:18;3.77;;;3.37;;
60847;SDS011;46681;47.696;9.140;2023-05-24T05:26:49;3.37;;;3.17;;
60847;SDS011;46681;47.696;9.140;2023-05-24T05:29:15;7.30;;;3.67;;
60847;SDS011;46681;47.696;9.140;2023-05-24T05:31:48;3.43;;;3.23;;
60847;SDS011;46681;47.696;9.140;2023-05-24T05:34:19;3.67;;;3.37;;
60847;SDS011;46681;47.696;9.140;2023-05-24T05:36:47;5.73;;;4.17;;
60847;SDS011;46681;47.696;9.140;2023-05-24T05:39:19;4.70;;;4.20;;
60847;SDS011;46681;47.696;9.140;2023-05-24T05:42:01;4.20;;;3.90;;
60847;SDS011;46681;47.696;9.140;2023-05-24T05:44:30;5.60;;;4.10;;
60847;SDS011;46681;47.696;9.140;2023-05-24T05:46:56;3.90;;;3.60;;
60847;SDS011;46681;47.696;9.140;2023-05-24T05:49:23;4.90;;;4.30;;
60847;SDS011;46681;47.696;9.140;2023-05-24T05:51:49;7.90;;;4.13;;
60847;SDS011;46681;47.696;9.140;2023-05-24T05:54:25;4.83;;;3.90;;
60847;SDS011;46681;47.696;9.140;2023-05-24T05:57:00;4.93;;;3.97;;
60847;SDS011;46681;47.696;9.140;2023-05-24T05:59:27;6.53;;;3.80;;
60847;SDS011;46681;47.696;9.140;2023-05-24T06:01:54;4.20;;;3.90;;
60847;SDS011;46681;47.696;9.140;2023-05-24T06:04:25;4.10;;;3.70;;
60847;SDS011;46681;47.696;9.140;2023-05-24T06:06:53;3.53;;;3.23;;
60847;SDS011;46681;47.696;9.140;2023-05-24T06:09:18;4.17;;;3.77;;
60847;SDS011;46681;47.696;9.140;2023-05-24T06:11:46;4.97;;;3.60;;
60847;SDS011;46681;47.696;9.140;2023-05-24T06:14:15;3.83;;;3.53;;
60847;SDS011;46681;47.696;9.140;2023-05-24T06:16:49;4.07;;;3.70;;
60847;SDS011;46681;47.696;9.140;2023-05-24T06:19:19;5.20;;;3.50;;
60847;SDS011;46681;47.696;9.140;2023-05-24T06:21:46;3.60;;;3.30;;
60847;SDS011;46681;47.696;9.140;2023-05-24T06:24:16;4.83;;;3.70;;
60847;SDS011;46681;47.696;9.140;2023-05-24T06:26:46;4.10;;;3.60;;
60847;SDS011;46681;47.696;9.140;2023-05-24T06:29:17;3.63;;;3.40;;
60847;SDS011;46681;47.696;9.140;2023-05-24T06:31:43;3.70;;;3.40;;
60847;SDS011;46681;47.696;9.140;2023-05-24T06:34:12;4.27;;;3.87;;
60847;SDS011;46681;47.696;9.140;2023-05-24T06:36:43;3.87;;;3.47;;
60847;SDS011;46681;47.696;9.140;2023-05-24T06:39:21;3.23;;;3.03;;
60847;SDS011;46681;47.696;9.140;2023-05-24T06:41:52;6.33;;;3.17;;
60847;SDS011;46681;47.696;9.140;2023-05-24T06:44:19;5.20;;;3.17;;
60847;SDS011;46681;47.696;9.140;2023-05-24T06:46:45;3.80;;;3.20;;
60847;SDS011;46681;47.696;9.140;2023-05-24T06:49:22;4.17;;;3.77;;
60847;SDS011;46681;47.696;9.140;2023-05-24T06:51:48;3.40;;;3.10;;
60847;SDS011;46681;47.696;9.140;2023-05-24T06:54:18;3.10;;;2.80;;
60847;SDS011;46681;47.696;9.140;2023-05-24T06:56:48;3.30;;;3.10;;
60847;SDS011;46681;47.696;9.140;2023-05-24T06:59:15;3.30;;;3.00;;
60847;SDS011;46681;47.696;9.140;2023-05-24T07:02:00;3.50;;;3.10;;
60847;SDS011;46681;47.696;9.140;2023-05-24T07:04:25;3.67;;;2.93;;
60847;SDS011;46681;47.696;9.140;2023-05-24T07:06:54;3.13;;;2.90;;
60847;SDS011;46681;47.696;9.140;2023-05-24T07:09:22;3.97;;;3.30;;
60847;SDS011;46681;47.696;9.140;2023-05-24T07:11:48;3.50;;;3.20;;
60847;SDS011;46681;47.696;9.140;2023-05-24T07:14:17;3.43;;;3.23;;
60847;SDS011;46681;47.696;9.140;2023-05-24T07:16:43;3.10;;;2.80;;
60847;SDS011;46681;47.696;9.140;2023-05-24T07:19:08;2.87;;;2.63;;
60847;SDS011;46681;47.696;9.140;2023-05-24T07:21:37;3.10;;;2.90;;
60847;SDS011;46681;47.696;9.140;2023-05-24T07:24:07;2.70;;;2.50;;
60847;SDS011;46681;47.696;9.140;2023-05-24T07:26:36;3.03;;;2.83;;
60847;SDS011;46681;47.696;9.140;2023-05-24T07:29:07;3.57;;;3.27;;
60847;SDS011;46681;47.696;9.140;2023-05-24T07:31:46;3.17;;;2.87;;
60847;SDS011;46681;47.696;9.140;2023-05-24T07:34:12;3.47;;;3.17;;
60847;SDS011;46681;47.696;9.140;2023-05-24T07:36:40;2.93;;;2.80;;
60847;SDS011;46681;47.696;9.140;2023-05-24T07:39:08;2.93;;;2.73;;
60847;SDS011;46681;47.696;9.140;2023-05-24T07:41:42;3.03;;;2.80;;
60847;SDS011;46681;47.696;9.140;2023-05-24T07:44:11;4.57;;;3.03;;
60847;SDS011;46681;47.696;9.140;2023-05-24T07:46:38;3.00;;;2.80;;
60847;SDS011;46681;47.696;9.140;2023-05-24T07:49:04;3.67;;;3.00;;
60847;SDS011;46681;47.696;9.140;2023-05-24T07:51:37;3.23;;;2.70;;
60847;SDS011;46681;47.696;9.140;2023-05-24T07:54:06;3.27;;;3.07;;
60847;SDS011;46681;47.696;9.140;2023-05-24T07:56:49;3.13;;;2.70;;
60847;SDS011;46681;47.696;9.140;2023-05-24T07:59:18;3.10;;;2.87;;
60847;SDS011;46681;47.696;9.140;2023-05-24T08:01:46;3.57;;;2.80;;
60847;SDS011;46681;47.696;9.140;2023-05-24T08:04:18;2.77;;;2.57;;
60847;SDS011;46681;47.696;9.140;2023-05-24T08:06:50;4.17;;;2.90;;
60847;SDS011;46681;47.696;9.140;2023-05-24T08:09:19;3.13;;;2.50;;
60847;SDS011;46681;47.696;9.140;2023-05-24T08:11:58;3.97;;;3.10;;
60847;SDS011;46681;47.696;9.140;2023-05-24T08:14:36;3.53;;;2.70;;
60847;SDS011;46681;47.696;9.140;2023-05-24T08:17:19;3.40;;;3.10;;
60847;SDS011;46681;47.696;9.140;2023-05-24T08:19:50;3.20;;;2.90;;
60847;SDS011;46681;47.696;9.140;2023-05-24T08:22:16;5.13;;;2.83;;
60847;SDS011;46681;47.696;9.140;2023-05-24T08:24:46;3.90;;;2.93;;
60847;SDS011;46681;47.696;9.140;2023-05-24T08:27:12;3.10;;;2.80;;
60847;SDS011;46681;47.696;9.140;2023-05-24T08:29:41;3.07;;;2.77;;
60847;SDS011;46681;47.696;9.140;2023-05-24T08:32:10;3.07;;;2.87;;
60847;SDS011;46681;47.696;9.140;2023-05-24T08:34:39;4.00;;;3.00;;
60847;SDS011;46681;47.696;9.140;2023-05-24T08:37:04;4.53;;;2.67;;
60847;SDS011;46681;47.696;9.140;2023-05-24T08:39:34;3.73;;;2.97;;
60847;SDS011;46681;47.696;9.140;2023-05-24T08:42:19;3.20;;;2.90;;
60847;SDS011;46681;47.696;9.140;2023-05-24T08:44:57;4.43;;;2.80;;
60847;SDS011;46681;47.696;9.140;2023-05-24T08:47:43;3.63;;;2.80;;
60847;SDS011;46681;47.696;9.140;2023-05-24T08:50:12;3.20;;;2.87;;
60847;SDS011;46681;47.696;9.140;2023-05-24T08:52:53;3.63;;;3.10;;
60847;SDS011;46681;47.696;9.140;2023-05-24T08:55:28;3.93;;;2.80;;
60847;SDS011;46681;47.696;9.140;2023-05-24T08:58:07;4.03;;;3.10;;
60847;SDS011;46681;47.696;9.140;2023-05-24T09:00:37;3.77;;;3.27;;
60847;SDS011;46681;47.696;9.140;2023-05-24T09:03:05;5.27;;;3.43;;
60847;SDS011;46681;47.696;9.140;2023-05-24T09:05:35;3.37;;;3.07;;
60847;SDS011;46681;47.696;9.140;2023-05-24T09:08:09;3.80;;;3.13;;
60847;SDS011;46681;47.696;9.140;2023-05-24T09:10:37;4.17;;;3.00;;
60847;SDS011;46681;47.696;9.140;2023-05-24T09:13:06;3.67;;;3.37;;
60847;SDS011;46681;47.696;9.140;2023-05-24T09:15:53;3.93;;;3.10;;
60847;SDS011;46681;47.696;9.140;2023-05-24T09:18:19;3.57;;;2.87;;
60847;SDS011;46681;47.696;9.140;2023-05-24T09:20:55;3.93;;;2.80;;
60847;SDS011;46681;47.696;9.140;2023-05-24T09:23:21;3.57;;;3.00;;
60847;SDS011;46681;47.696;9.140;2023-05-24T09:25:58;3.47;;;2.90;;
60847;SDS011;46681;47.696;9.140;2023-05-24T09:28:42;5.43;;;3.27;;
60847;SDS011;46681;47.696;9.140;2023-05-24T09:31:48;4.00;;;2.80;;
60847;SDS011;46681;47.696;9.140;2023-05-24T09:34:09;6.63;;;3.53;;
60847;SDS011;46681;47.696;9.140;2023-05-24T09:36:53;4.73;;;3.40;;
60847;SDS011;46681;47.696;9.140;2023-05-24T09:39:20;4.70;;;3.10;;
60847;SDS011;46681;47.696;9.140;2023-05-24T09:41:54;4.70;;;3.03;;
60847;SDS011;46681;47.696;9.140;2023-05-24T09:44:41;3.27;;;2.77;;
60847;SDS011;46681;47.696;9.140;2023-05-24T09:47:07;3.23;;;2.90;;
60847;SDS011;46681;47.696;9.140;2023-05-24T09:49:37;4.33;;;3.10;;
60847;SDS011;46681;47.696;9.140;2023-05-24T09:52:03;3.90;;;3.20;;
60847;SDS011;46681;47.696;9.140;2023-05-24T09:54:38;3.47;;;3.10;;
60847;SDS011;46681;47.696;9.140;2023-05-24T09:57:15;4.47;;;2.93;;
60847;SDS011;46681;47.696;9.140;2023-05-24T09:59:44;3.53;;;3.23;;
60847;SDS011;46681;47.696;9.140;2023-05-24T10:02:25;5.77;;;3.07;;
60847;SDS011;46681;47.696;9.140;2023-05-24T10:05:09;3.30;;;3.00;;
60847;SDS011;46681;47.696;9.140;2023-05-24T10:08:00;3.10;;;2.80;;
60847;SDS011;46681;47.696;9.140;2023-05-24T10:10:46;4.13;;;3.20;;
60847;SDS011;46681;47.696;9.140;2023-05-24T10:13:37;4.50;;;3.20;;
60847;SDS011;46681;47.696;9.140;2023-05-24T10:16:23;5.40;;;3.13;;
60847;SDS011;46681;47.696;9.140;2023-05-24T10:18:58;4.90;;;3.47;;
60847;SDS011;46681;47.696;9.140;2023-05-24T10:22:06;3.73;;;3.17;;
60847;SDS011;46681;47.696;9.140;2023-05-24T10:25:14;5.57;;;4.13;;
60847;SDS011;46681;47.696;9.140;2023-05-24T10:28:01;6.23;;;3.37;;
60847;SDS011;46681;47.696;9.140;2023-05-24T10:37:16;5.57;;;3.50;;
60847;SDS011;46681;47.696;9.140;2023-05-24T10:40:17;4.70;;;4.00;;
60847;SDS011;46681;47.696;9.140;2023-05-24T10:43:11;9.77;;;4.60;;
60847;SDS011;46681;47.696;9.140;2023-05-24T10:48:40;4.10;;;3.70;;
60847;SDS011;46681;47.696;9.140;2023-05-24T10:54:58;7.07;;;4.60;;
60847;SDS011;46681;47.696;9.140;2023-05-24T10:57:47;3.90;;;3.50;;
60847;SDS011;46681;47.696;9.140;2023-05-24T11:00:41;5.33;;;4.17;;
60847;SDS011;46681;47.696;9.140;2023-05-24T11:03:35;4.13;;;3.63;;
60847;SDS011;46681;47.696;9.140;2023-05-24T11:10:08;3.90;;;3.60;;
60847;SDS011;46681;47.696;9.140;2023-05-24T11:21:58;5.40;;;4.10;;
60847;SDS011;46681;47.696;9.140;2023-05-24T11:24:42;4.60;;;4.00;;
60847;SDS011;46681;47.696;9.140;2023-05-24T11:27:18;5.33;;;4.23;;
60847;SDS011;46681;47.696;9.140;2023-05-24T11:35:49;4.93;;;4.23;;
60847;SDS011;46681;47.696;9.140;2023-05-24T11:38:35;5.33;;;3.80;;
60847;SDS011;46681;47.696;9.140;2023-05-24T11:41:01;5.07;;;4.10;;
60847;SDS011;46681;47.696;9.140;2023-05-24T11:44:05;6.77;;;3.97;;
60847;SDS011;46681;47.696;9.140;2023-05-24T11:47:25;5.30;;;4.23;;
60847;SDS011;46681;47.696;9.140;2023-05-24T11:49:53;5.10;;;4.23;;
60847;SDS011;46681;47.696;9.140;2023-05-24T11:52:30;7.43;;;4.60;;
60847;SDS011;46681;47.696;9.140;2023-05-24T11:55:11;4.50;;;3.90;;
60847;SDS011;46681;47.696;9.140;2023-05-24T11:58:37;5.33;;;3.87;;
60847;SDS011;46681;47.696;9.140;2023-05-24T12:04:14;5.07;;;4.23;;
60847;SDS011;46681;47.696;9.140;2023-05-24T12:06:50;4.57;;;3.97;;
60847;SDS011;46681;47.696;9.140;2023-05-24T12:09:41;4.97;;;4.07;;
60847;SDS011;46681;47.696;9.140;2023-05-24T12:15:53;7.63;;;4.43;;
60847;SDS011;46681;47.696;9.140;2023-05-24T12:18:31;5.33;;;4.73;;
60847;SDS011;46681;47.696;9.140;2023-05-24T12:21:17;7.13;;;4.77;;
60847;SDS011;46681;47.696;9.140;2023-05-24T12:24:21;7.37;;;5.03;;
60847;SDS011;46681;47.696;9.140;2023-05-24T12:27:13;5.13;;;4.33;;
60847;SDS011;46681;47.696;9.140;2023-05-24T12:29:48;7.53;;;5.10;;
60847;SDS011;46681;47.696;9.140;2023-05-24T12:32:20;7.60;;;4.67;;
60847;SDS011;46681;47.696;9.140;2023-05-24T12:34:48;8.30;;;4.87;;
60847;SDS011;46681;47.696;9.140;2023-05-24T12:37:22;5.93;;;5.27;;
60847;SDS011;46681;47.696;9.140;2023-05-24T12:39:48;5.20;;;4.67;;
60847;SDS011;46681;47.696;9.140;2023-05-24T12:42:17;6.40;;;4.77;;
60847;SDS011;46681;47.696;9.140;2023-05-24T12:44:59;9.27;;;5.53;;
60847;SDS011;46681;47.696;9.140;2023-05-24T12:47:38;9.27;;;5.37;;
60847;SDS011;46681;47.696;9.140;2023-05-24T12:50:22;6.23;;;5.30;;
60847;SDS011;46681;47.696;9.140;2023-05-24T12:52:49;6.70;;;5.20;;
60847;SDS011;46681;47.696;9.140;2023-05-24T12:55:38;5.43;;;4.90;;
60847;SDS011;46681;47.696;9.140;2023-05-24T12:58:38;8.30;;;5.10;;
60847;SDS011;46681;47.696;9.140;2023-05-24T13:01:18;9.33;;;4.53;;
60847;SDS011;46681;47.696;9.140;2023-05-24T13:04:10;6.40;;;4.70;;
60847;SDS011;46681;47.696;9.140;2023-05-24T13:06:36;5.60;;;4.50;;
60847;SDS011;46681;47.696;9.140;2023-05-24T13:09:07;5.47;;;4.30;;
60847;SDS011;46681;47.696;9.140;2023-05-24T13:11:40;6.93;;;4.77;;
60847;SDS011;46681;47.696;9.140;2023-05-24T13:14:07;8.13;;;4.30;;
60847;SDS011;46681;47.696;9.140;2023-05-24T13:16:39;5.10;;;4.37;;
60847;SDS011;46681;47.696;9.140;2023-05-24T13:19:10;6.73;;;3.60;;
60847;SDS011;46681;47.696;9.140;2023-05-24T13:21:51;5.77;;;4.23;;
60847;SDS011;46681;47.696;9.140;2023-05-24T13:24:23;4.53;;;3.90;;
60847;SDS011;46681;47.696;9.140;2023-05-24T13:26:51;7.80;;;4.47;;
60847;SDS011;46681;47.696;9.140;2023-05-24T13:29:28;5.20;;;4.43;;
60847;SDS011;46681;47.696;9.140;2023-05-24T13:32:17;7.83;;;4.13;;
60847;SDS011;46681;47.696;9.140;2023-05-24T13:34:56;6.40;;;4.30;;
60847;SDS011;46681;47.696;9.140;2023-05-24T13:37:24;6.13;;;4.13;;
60847;SDS011;46681;47.696;9.140;2023-05-24T13:39:59;4.43;;;4.00;;
60847;SDS011;46681;47.696;9.140;2023-05-24T13:43:07;5.80;;;3.90;;
60847;SDS011;46681;47.696;9.140;2023-05-24T13:45:35;7.97;;;4.63;;
60847;SDS011;46681;47.696;9.140;2023-05-24T13:48:03;4.50;;;3.87;;
60847;SDS011;46681;47.696;9.140;2023-05-24T13:50:41;5.70;;;3.93;;
60847;SDS011;46681;47.696;9.140;2023-05-24T13:53:07;5.53;;;3.80;;
60847;SDS011;46681;47.696;9.140;2023-05-24T13:55:55;3.93;;;3.47;;
60847;SDS011;46681;47.696;9.140;2023-05-24T13:58:25;7.27;;;4.33;;
60847;SDS011;46681;47.696;9.140;2023-05-24T14:00:53;6.87;;;4.00;;
60847;SDS011;46681;47.696;9.140;2023-05-24T14:03:42;8.47;;;4.47;;
60847;SDS011;46681;47.696;9.140;2023-05-24T14:06:14;5.07;;;3.80;;
60847;SDS011;46681;47.696;9.140;2023-05-24T14:08:57;7.03;;;4.17;;
60847;SDS011;46681;47.696;9.140;2023-05-24T14:11:41;5.47;;;4.40;;
60847;SDS011;46681;47.696;9.140;2023-05-24T14:14:07;7.17;;;4.30;;
60847;SDS011;46681;47.696;9.140;2023-05-24T14:16:52;6.00;;;4.17;;
60847;SDS011;46681;47.696;9.140;2023-05-24T14:19:18;8.67;;;4.63;;
60847;SDS011;46681;47.696;9.140;2023-05-24T14:22:02;5.80;;;4.00;;
60847;SDS011;46681;47.696;9.140;2023-05-24T14:24:33;5.63;;;4.10;;
60847;SDS011;46681;47.696;9.140;2023-05-24T14:27:12;8.87;;;4.87;;
60847;SDS011;46681;47.696;9.140;2023-05-24T14:29:53;8.10;;;4.57;;
60847;SDS011;46681;47.696;9.140;2023-05-24T14:32:24;10.33;;;4.90;;
60847;SDS011;46681;47.696;9.140;2023-05-24T14:34:56;9.03;;;4.33;;
60847;SDS011;46681;47.696;9.140;2023-05-24T14:37:31;7.40;;;4.40;;
60847;SDS011;46681;47.696;9.140;2023-05-24T14:40:08;8.43;;;4.23;;
60847;SDS011;46681;47.696;9.140;2023-05-24T14:42:38;5.10;;;4.23;;
60847;SDS011;46681;47.696;9.140;2023-05-24T14:45:24;6.13;;;3.80;;
60847;SDS011;46681;47.696;9.140;2023-05-24T14:48:10;6.93;;;4.13;;
60847;SDS011;46681;47.696;9.140;2023-05-24T14:50:42;7.13;;;3.93;;
60847;SDS011;46681;47.696;9.140;2023-05-24T14:53:32;5.97;;;4.37;;
60847;SDS011;46681;47.696;9.140;2023-05-24T14:56:11;5.63;;;3.90;;
60847;SDS011;46681;47.696;9.140;2023-05-24T14:58:42;6.10;;;3.87;;
60847;SDS011;46681;47.696;9.140;2023-05-24T15:01:09;4.30;;;3.90;;
60847;SDS011;46681;47.696;9.140;2023-05-24T15:03:45;4.40;;;3.80;;
60847;SDS011;46681;47.696;9.140;2023-05-24T15:06:24;9.43;;;4.33;;
60847;SDS011;46681;47.696;9.140;2023-05-24T15:09:03;8.13;;;4.13;;
60847;SDS011;46681;47.696;9.140;2023-05-24T15:11:45;6.70;;;3.57;;
60847;SDS011;46681;47.696;9.140;2023-05-24T15:14:19;5.97;;;3.80;;
60847;SDS011;46681;47.696;9.140;2023-05-24T15:16:54;5.40;;;3.90;;
60847;SDS011;46681;47.696;9.140;2023-05-24T15:19:19;6.27;;;4.33;;
60847;SDS011;46681;47.696;9.140;2023-05-24T15:21:52;7.87;;;4.10;;
60847;SDS011;46681;47.696;9.140;2023-05-24T15:24:22;7.53;;;4.63;;
60847;SDS011;46681;47.696;9.140;2023-05-24T15:27:01;6.10;;;3.93;;
60847;SDS011;46681;47.696;9.140;2023-05-24T15:29:41;4.80;;;3.73;;
60847;SDS011;46681;47.696;9.140;2023-05-24T15:32:18;5.33;;;3.60;;
60847;SDS011;46681;47.696;9.140;2023-05-24T15:35:18;6.97;;;4.40;;
60847;SDS011;46681;47.696;9.140;2023-05-24T15:41:15;9.30;;;4.33;;
60847;SDS011;46681;47.696;9.140;2023-05-24T15:43:45;4.20;;;3.60;;
60847;SDS011;46681;47.696;9.140;2023-05-24T15:46:32;5.77;;;3.70;;
60847;SDS011;46681;47.696;9.140;2023-05-24T15:49:15;7.20;;;3.90;;
60847;SDS011;46681;47.696;9.140;2023-05-24T15:52:08;5.00;;;3.77;;
60847;SDS011;46681;47.696;9.140;2023-05-24T15:55:03;7.13;;;4.30;;
60847;SDS011;46681;47.696;9.140;2023-05-24T15:57:48;7.40;;;4.17;;
60847;SDS011;46681;47.696;9.140;2023-05-24T16:00:40;7.57;;;4.20;;
60847;SDS011;46681;47.696;9.140;2023-05-24T16:03:11;6.93;;;3.93;;
60847;SDS011;46681;47.696;9.140;2023-05-24T16:05:52;11.00;;;4.13;;
60847;SDS011;46681;47.696;9.140;2023-05-24T16:08:28;5.57;;;4.03;;
60847;SDS011;46681;47.696;9.140;2023-05-24T16:11:26;6.40;;;4.00;;
60847;SDS011;46681;47.696;9.140;2023-05-24T16:14:01;8.97;;;3.97;;